VE-0009 weather

Aguasay Heliport
Aguasay, Monagas, Venezuela

Public forecast

Using degrees Celsius for public forecast. Weather courtesy of forecast.io.

Closest aviation weather report (METAR) to Aguasay Heliport

Report is more than 6 hours old.

Closest report is San Tomé Airport, 37.6 nm (69.7 km) SW. Retrieved 2015/09/29 20:00 UTC (4 years ago):

SVST 292000Z 00000KT 9999 SCT060 ///// Q1011

Closest aviation forecast (TAF) to Aguasay Heliport

Closest forecast is General José Antonio Anzoategui International Airport, 70.0 nm (129.6 km) NW. Retrieved 2019/10/16 06:03 UTC (5 hours ago):

TAF SVBC 160400Z 1606/1706 07002KT 9999 FEW010 TX34/19Z TN24/08Z TEMPO 1618/1623 07005KT 9000 DZ BKN010